KBIH/BIH METAR and TAF weather

Enter ICAO airport designator
Station Type Date Time Source
KBIH METAR 2021/05/12 01:56 UTC NOAA

KBIH 120156Z AUTO 18006KT 10SM CLR 26/M07 A2993 RMK AO2 SLP096 T02561072


Station Type Date Time Source
KBIH Decoded METAR 2021/05/12 01:56 UTC NOAA

BISHOP AIRPORT, CA, United States (KBIH) 37-22N 118-22W 1253M
May 11, 2021 - 09:56 PM EDT / 2021.05.12 0156 UTC
Wind: from the S (180 degrees) at 7 MPH (6 KT):0
Visibility: 10 mile(s):0
Sky conditions: clear
Temperature: 78.1 F (25.6 C)
Dew Point: 19.0 F (-7.2 C)
Relative Humidity: 10%
Pressure (altimeter): 29.93 in. Hg (1013 hPa)
ob: KBIH 120156Z AUTO 18006KT 10SM CLR 26/M07 A2993 RMK AO2 SLP096 T02561072
cycle: 2

Station Type Date Time Source
KBIH TAF 2021/05/11 18:27 UTC NOAA

TAF KBIH 111724Z 1118/1218 VRB06KT P6SM SKC
FM120200 36011KT P6SM FEW150
FM120900 01008KT P6SM SKC
FM121500 VRB05KT P6SM SKC

Example: see airport list